Terminal Aerodrome Forecast
Issued by NWS

Home | Current Version | Previous Version | Text Only | Print | Product List | Glossary Off
Versions: 1 2 3 4 5 6 7 8 9 10 11 12 13 14 15 16

000
FTUS43 KICT 140522
TAFHUT
TAF
KHUT 140522Z 1406/1506 03008KT P6SM SCT035 SCT100
     FM140800 12005KT P6SM VCTS BKN035 OVC070CB
     FM141200 16009KT P6SM VCTS OVC080CB
     FM141600 18013G21KT P6SM VCSH BKN120
     FM142200 25016G24KT P6SM -SHRA VCTS BKN090CB
     FM150100 34026G35KT P6SM BKN150=

USA.gov is the U.S. government's official web portal to all federal, state and local government web resources and services.